createdAt,value
2022-10-01T00:01:27.362Z,81.51
2022-10-01T00:03:57.181Z,81.64
2022-10-01T00:06:28.465Z,81.55
2022-10-01T00:08:58.883Z,81.55
2022-10-01T00:11:33.585Z,81.51
2022-10-01T00:14:04.932Z,81.60
2022-10-01T00:16:35.929Z,81.48
2022-10-01T00:19:05.474Z,81.46
2022-10-01T00:21:36.937Z,81.69
2022-10-01T00:24:08.447Z,81.88
2022-10-01T00:26:39.610Z,81.83
2022-10-01T00:29:13.650Z,81.90
2022-10-01T00:31:44.609Z,81.81
2022-10-01T00:34:15.253Z,81.84
2022-10-01T00:36:46.524Z,81.91
2022-10-01T00:39:17.791Z,81.79
2022-10-01T00:41:48.884Z,81.96
2022-10-01T00:44:34.341Z,81.97
2022-10-01T00:47:12.106Z,81.69
2022-10-01T00:49:44.276Z,81.67
2022-10-01T00:52:19.176Z,81.69
2022-10-01T00:54:54.740Z,81.59
2022-10-01T00:57:28.398Z,81.47
2022-10-01T01:00:03.463Z,81.41
2022-10-01T01:02:34.751Z,81.40
2022-10-01T01:05:06.568Z,81.32
2022-10-01T01:07:39.386Z,81.23
2022-10-01T01:10:12.052Z,81.26
2022-10-01T01:12:57.226Z,81.23
2022-10-01T01:15:34.637Z,81.12
2022-10-01T01:18:11.781Z,81.09
2022-10-01T01:20:58.216Z,81.13
2022-10-01T01:23:41.996Z,81.15
2022-10-01T01:26:24.566Z,81.17
2022-10-01T01:29:04.415Z,81.31
2022-10-01T01:31:40.452Z,81.30
2022-10-01T01:34:16.151Z,81.73
2022-10-01T01:36:54.405Z,81.93
2022-10-01T01:39:31.497Z,82.13
2022-10-01T01:42:09.106Z,82.27
2022-10-01T01:44:44.619Z,82.30
2022-10-01T01:47:16.031Z,82.45
2022-10-01T01:49:48.208Z,82.58
2022-10-01T01:52:20.080Z,82.63
2022-10-01T01:54:52.546Z,82.72
2022-10-01T01:57:23.899Z,82.65
2022-10-01T01:59:56.773Z,82.71
2022-10-01T02:02:33.329Z,82.51
2022-10-01T02:05:07.263Z,82.51
2022-10-01T02:07:55.221Z,82.45
2022-10-01T02:10:37.437Z,82.54
2022-10-01T02:13:22.240Z,82.53
2022-10-01T02:16:02.179Z,82.37
2022-10-01T02:18:40.949Z,82.39
2022-10-01T02:21:20.248Z,82.25
2022-10-01T02:23:58.218Z,82.30
2022-10-01T02:26:32.374Z,82.62
2022-10-01T02:29:08.171Z,82.82
2022-10-01T02:31:39.769Z,83.18
2022-10-01T02:34:12.852Z,83.33
2022-10-01T02:36:46.331Z,83.59
2022-10-01T02:39:20.276Z,83.67
2022-10-01T02:41:53.234Z,83.74
2022-10-01T02:44:29.859Z,83.70
2022-10-01T02:47:04.551Z,83.74
2022-10-01T02:49:36.887Z,83.77
2022-10-01T02:52:16.943Z,83.80
2022-10-01T02:54:54.715Z,83.78
2022-10-01T02:57:29.901Z,83.87
2022-10-01T03:00:03.787Z,83.91
2022-10-01T03:02:35.082Z,83.91
2022-10-01T03:05:07.726Z,84.00
2022-10-01T03:07:40.136Z,83.94
2022-10-01T03:10:13.023Z,83.84
2022-10-01T03:12:46.841Z,83.80
2022-10-01T03:15:20.388Z,83.78
2022-10-01T03:17:53.796Z,83.70
2022-10-01T03:20:25.346Z,83.81
2022-10-01T03:22:56.461Z,83.81
2022-10-01T03:25:28.046Z,83.87
2022-10-01T03:27:59.687Z,83.84
2022-10-01T03:30:30.408Z,83.82
2022-10-01T03:33:01.295Z,83.92
2022-10-01T03:35:32.079Z,83.96
2022-10-01T03:38:03.029Z,83.92
2022-10-01T03:40:38.008Z,83.87
2022-10-01T03:43:08.872Z,83.83
2022-10-01T03:45:40.133Z,83.89
2022-10-01T03:48:11.095Z,83.84
2022-10-01T03:50:42.121Z,83.73
2022-10-01T03:53:13.096Z,83.72
2022-10-01T03:55:44.064Z,83.59
2022-10-01T03:58:14.933Z,83.57
2022-10-01T04:00:46.624Z,83.56
2022-10-01T04:03:19.056Z,83.34
2022-10-01T04:05:49.833Z,83.27
2022-10-01T04:08:24.201Z,83.38
2022-10-01T04:10:55.383Z,83.43
2022-10-01T04:13:25.027Z,83.30
2022-10-01T04:15:56.046Z,83.34
2022-10-01T04:18:27.078Z,83.29
2022-10-01T04:20:57.971Z,83.24
2022-10-01T04:23:29.480Z,83.40
2022-10-01T04:26:03.166Z,83.51
2022-10-01T04:28:34.205Z,83.66
2022-10-01T04:31:21.095Z,83.45
2022-10-01T04:33:52.441Z,83.49
2022-10-01T04:36:24.534Z,83.56
2022-10-01T04:38:59.563Z,83.57
2022-10-01T04:41:33.476Z,83.57
2022-10-01T04:44:05.296Z,83.54
2022-10-01T04:46:36.337Z,83.61
2022-10-01T04:49:08.063Z,83.59
2022-10-01T04:51:38.951Z,83.68
2022-10-01T04:54:09.691Z,83.64
2022-10-01T04:56:40.456Z,83.79
2022-10-01T04:59:11.124Z,83.86
2022-10-01T05:01:42.632Z,83.79
2022-10-01T05:04:13.701Z,83.79
2022-10-01T05:06:43.004Z,83.74
2022-10-01T05:09:13.889Z,83.83
2022-10-01T05:11:44.657Z,83.77
2022-10-01T05:14:16.183Z,83.84
2022-10-01T05:16:47.164Z,83.94
2022-10-01T05:19:16.625Z,83.98
2022-10-01T05:21:47.745Z,84.02
2022-10-01T05:24:18.879Z,84.01
2022-10-01T05:26:48.240Z,84.07
2022-10-01T05:29:19.200Z,84.12
2022-10-01T05:31:50.310Z,84.08
2022-10-01T05:34:21.237Z,84.18
2022-10-01T05:36:52.191Z,84.07
2022-10-01T05:39:22.869Z,84.19
2022-10-01T05:41:55.563Z,84.27
2022-10-01T05:44:27.178Z,84.27
2022-10-01T05:46:58.130Z,84.27
2022-10-01T05:49:29.202Z,84.31
2022-10-01T05:52:01.177Z,84.33
2022-10-01T05:54:32.488Z,84.38
2022-10-01T05:57:03.431Z,84.27
2022-10-01T05:59:34.228Z,84.37
2022-10-01T06:02:04.286Z,84.37
2022-10-01T06:04:40.334Z,84.38
2022-10-01T06:07:11.969Z,84.27
2022-10-01T06:09:43.014Z,84.31
2022-10-01T06:12:15.348Z,84.32
2022-10-01T06:14:48.690Z,84.40
2022-10-01T06:17:18.460Z,84.45
2022-10-01T06:19:48.047Z,84.55
2022-10-01T06:22:18.960Z,84.63
2022-10-01T06:24:52.728Z,84.50
2022-10-01T06:27:26.725Z,84.60
2022-10-01T06:29:57.767Z,84.61
2022-10-01T06:32:31.633Z,84.58
2022-10-01T06:35:04.395Z,84.54
2022-10-01T06:37:39.348Z,84.70
2022-10-01T06:40:11.747Z,84.62
2022-10-01T06:42:47.659Z,84.53
2022-10-01T06:45:19.066Z,84.44
2022-10-01T06:47:56.598Z,84.46
2022-10-01T06:50:27.954Z,84.45
2022-10-01T06:52:59.262Z,84.17
2022-10-01T06:55:32.797Z,84.40
2022-10-01T06:58:05.811Z,84.40
2022-10-01T07:00:39.199Z,84.40
2022-10-01T07:03:14.235Z,84.56
2022-10-01T07:05:45.151Z,84.48
2022-10-01T07:08:16.933Z,84.38
2022-10-01T07:10:48.180Z,84.36
2022-10-01T07:13:21.794Z,84.22
2022-10-01T07:15:52.631Z,84.13
2022-10-01T07:18:23.862Z,83.98
2022-10-01T07:20:57.567Z,83.97
2022-10-01T07:23:28.555Z,83.92
2022-10-01T07:25:59.664Z,83.87
2022-10-01T07:28:30.711Z,83.72
2022-10-01T07:31:06.572Z,83.83
2022-10-01T07:33:37.590Z,83.73
2022-10-01T07:36:12.483Z,83.65
2022-10-01T07:38:46.128Z,83.69
2022-10-01T07:41:17.574Z,83.64
2022-10-01T07:43:49.898Z,83.66
2022-10-01T07:46:20.923Z,83.53
2022-10-01T07:48:52.565Z,83.37
2022-10-01T07:51:24.657Z,83.39
2022-10-01T07:53:55.755Z,83.43
2022-10-01T07:56:27.174Z,83.36
2022-10-01T07:58:58.938Z,82.63
2022-10-01T08:01:31.885Z,82.20
2022-10-01T08:04:23.852Z,82.08
2022-10-01T08:06:54.856Z,81.88
2022-10-01T08:09:24.888Z,81.81
2022-10-01T08:11:55.876Z,81.99
2022-10-01T08:14:27.043Z,81.81
2022-10-01T08:16:57.159Z,81.61
2022-10-01T08:19:28.365Z,81.54
2022-10-01T08:21:59.263Z,81.20
2022-10-01T08:24:28.787Z,81.09
2022-10-01T08:26:59.818Z,80.85
2022-10-01T08:29:32.570Z,80.11
2022-10-01T08:32:03.976Z,79.95
2022-10-01T08:34:35.774Z,79.86
2022-10-01T08:37:07.093Z,79.67
2022-10-01T08:39:37.183Z,79.24
2022-10-01T08:42:15.452Z,79.34
2022-10-01T08:44:48.008Z,79.47
2022-10-01T08:47:27.005Z,79.47
2022-10-01T08:50:04.695Z,78.98
2022-10-01T08:52:43.667Z,78.49
2022-10-01T08:55:21.256Z,78.24
2022-10-01T08:57:56.068Z,78.59
2022-10-01T09:00:28.378Z,77.96
2022-10-01T09:03:04.861Z,77.30
2022-10-01T09:05:46.334Z,76.90
2022-10-01T09:08:43.544Z,76.64
2022-10-01T09:11:39.676Z,77.00
2022-10-01T09:14:31.648Z,76.01
2022-10-01T09:17:11.385Z,75.63
2022-10-01T09:20:00.468Z,75.55
2022-10-01T09:22:38.547Z,75.40
2022-10-01T09:25:18.425Z,75.25
2022-10-01T09:27:49.844Z,75.31
2022-10-01T09:30:23.475Z,74.44
2022-10-01T09:32:59.943Z,73.79
2022-10-01T09:35:44.196Z,73.59
2022-10-01T09:38:23.327Z,73.78
2022-10-01T09:40:56.516Z,74.12
2022-10-01T09:43:31.070Z,73.67
2022-10-01T09:46:04.725Z,73.53
2022-10-01T09:48:44.286Z,73.47
2022-10-01T09:51:18.976Z,72.25
2022-10-01T09:54:04.567Z,72.31
2022-10-01T09:56:42.439Z,71.73
2022-10-01T09:59:19.504Z,71.25
2022-10-01T10:01:53.200Z,71.52
2022-10-01T10:04:25.060Z,70.99
2022-10-01T10:07:05.178Z,70.02
2022-10-01T10:09:38.134Z,70.19
2022-10-01T10:12:18.443Z,70.10
2022-10-01T10:14:49.897Z,70.50
2022-10-01T10:17:22.195Z,70.52
2022-10-01T10:19:54.649Z,70.66
2022-10-01T10:22:27.710Z,70.27
2022-10-01T10:25:11.765Z,69.26
2022-10-01T10:27:55.342Z,69.07
2022-10-01T10:30:27.330Z,69.47
2022-10-01T10:33:08.295Z,69.38
2022-10-01T10:35:39.423Z,68.48
2022-10-01T10:38:20.577Z,68.86
2022-10-01T10:40:52.742Z,69.14
2022-10-01T10:43:26.969Z,69.61
2022-10-01T10:45:58.974Z,70.01
2022-10-01T10:48:33.960Z,70.07
2022-10-01T10:51:06.921Z,69.45
2022-10-01T10:53:45.285Z,69.18
2022-10-01T10:56:23.131Z,68.98
2022-10-01T10:58:54.414Z,69.47
2022-10-01T11:01:30.133Z,70.01
2022-10-01T11:04:02.996Z,69.62
2022-10-01T11:06:34.286Z,69.36
2022-10-01T11:09:11.779Z,68.94
2022-10-01T11:11:51.380Z,68.72
2022-10-01T11:14:34.233Z,68.44
2022-10-01T11:17:22.019Z,68.91
2022-10-01T11:20:04.972Z,67.57
2022-10-01T11:22:53.730Z,68.19
2022-10-01T11:25:41.486Z,68.41
2022-10-01T11:28:27.894Z,68.61
2022-10-01T11:31:07.428Z,68.31
2022-10-01T11:33:47.084Z,67.62
2022-10-01T11:36:25.825Z,66.82
2022-10-01T11:39:02.826Z,67.46
2022-10-01T11:41:39.970Z,67.34
2022-10-01T11:44:18.284Z,66.11
2022-10-01T11:46:58.650Z,65.83
2022-10-01T11:49:48.114Z,63.88
2022-10-01T11:52:29.191Z,62.30
2022-10-01T11:55:23.718Z,63.34
2022-10-01T11:58:17.678Z,63.06
2022-10-01T12:00:59.771Z,62.13
2022-10-01T12:03:39.028Z,63.39
2022-10-01T12:06:14.921Z,62.41
2022-10-01T12:08:53.230Z,62.15
2022-10-01T12:11:29.372Z,62.88
2022-10-01T12:14:07.597Z,62.80
2022-10-01T12:16:46.415Z,62.30
2022-10-01T12:19:21.866Z,62.91
2022-10-01T12:21:56.158Z,62.25
2022-10-01T12:24:32.492Z,60.71
2022-10-01T12:27:21.229Z,60.23
2022-10-01T12:29:59.166Z,59.64
2022-10-01T12:32:41.292Z,59.84
2022-10-01T12:35:27.076Z,59.69
2022-10-01T12:38:14.033Z,59.58
2022-10-01T12:40:52.991Z,60.31
2022-10-01T12:43:46.244Z,59.78
2022-10-01T12:46:33.687Z,59.70
2022-10-01T12:49:13.800Z,60.09
2022-10-01T12:51:48.908Z,60.73
2022-10-01T12:54:41.884Z,60.66
2022-10-01T12:57:33.328Z,62.20
2022-10-01T13:00:11.856Z,62.94
2022-10-01T13:03:07.182Z,64.39
2022-10-01T13:05:44.616Z,65.88
2022-10-01T13:08:30.293Z,67.75
2022-10-01T13:11:13.112Z,69.32
2022-10-01T13:13:44.870Z,69.52
2022-10-01T13:16:31.387Z,69.96
2022-10-01T13:19:08.333Z,71.04
2022-10-01T13:21:53.927Z,71.50
2022-10-01T13:24:31.180Z,71.74
2022-10-01T13:27:07.411Z,72.56
2022-10-01T13:29:53.886Z,73.34
2022-10-01T13:32:30.865Z,73.45
2022-10-01T13:35:01.353Z,74.27
2022-10-01T13:37:38.115Z,74.64
2022-10-01T13:40:25.091Z,74.88
2022-10-01T13:42:59.864Z,75.22
2022-10-01T13:45:40.685Z,75.22
2022-10-01T13:48:19.080Z,75.65
2022-10-01T13:51:03.205Z,75.66
2022-10-01T13:53:37.633Z,76.16
2022-10-01T13:56:11.521Z,76.46
2022-10-01T13:58:44.422Z,76.78
2022-10-01T14:01:30.562Z,77.02
2022-10-01T14:04:08.131Z,77.79
2022-10-01T14:06:46.619Z,78.34
2022-10-01T14:09:21.066Z,78.57
2022-10-01T14:12:14.796Z,78.72
2022-10-01T14:15:11.776Z,78.92
2022-10-01T14:17:44.825Z,79.47
2022-10-01T14:20:22.720Z,79.83
2022-10-01T14:23:12.039Z,80.38
2022-10-01T14:25:53.674Z,80.56
2022-10-01T14:28:53.651Z,81.17
2022-10-01T14:31:35.727Z,81.70
2022-10-01T14:34:37.643Z,81.87
2022-10-01T14:37:16.960Z,82.50
2022-10-01T14:40:01.076Z,82.54
2022-10-01T14:42:32.243Z,82.64
2022-10-01T14:45:03.393Z,82.83
2022-10-01T14:47:35.995Z,82.80
2022-10-01T14:50:19.163Z,82.97
2022-10-01T14:52:51.603Z,83.00
2022-10-01T14:55:24.899Z,83.34
2022-10-01T14:57:58.346Z,83.29
2022-10-01T15:00:32.237Z,83.72
2022-10-01T15:03:15.329Z,83.83
2022-10-01T15:05:45.531Z,83.93
2022-10-01T15:08:18.707Z,83.88
2022-10-01T15:10:54.507Z,84.12
2022-10-01T15:13:28.617Z,84.22
2022-10-01T15:16:00.359Z,84.32
2022-10-01T15:18:32.715Z,84.52
2022-10-01T15:21:07.016Z,84.54
2022-10-01T15:23:42.313Z,84.52
2022-10-01T15:26:19.546Z,84.53
2022-10-01T15:28:51.235Z,84.99
2022-10-01T15:31:24.503Z,85.17
2022-10-01T15:33:55.575Z,85.46
2022-10-01T15:36:26.589Z,85.50
2022-10-01T15:38:58.005Z,85.78
2022-10-01T15:41:32.996Z,85.97
2022-10-01T15:44:06.605Z,85.98
2022-10-01T15:46:37.907Z,86.12
2022-10-01T15:49:19.346Z,86.53
2022-10-01T15:52:13.323Z,86.67
2022-10-01T15:54:47.294Z,86.61
2022-10-01T15:57:25.878Z,86.60
2022-10-01T15:59:57.988Z,87.23
2022-10-01T16:02:32.999Z,87.36
2022-10-01T16:05:09.076Z,87.06
2022-10-01T16:07:40.366Z,87.39
2022-10-01T16:10:31.395Z,87.12
2022-10-01T16:13:22.191Z,87.38
2022-10-01T16:16:09.402Z,87.94
2022-10-01T16:18:40.440Z,88.00
2022-10-01T16:21:10.628Z,87.93
2022-10-01T16:23:49.603Z,88.01
2022-10-01T16:26:39.218Z,88.09
2022-10-01T16:29:23.582Z,88.21
2022-10-01T16:31:55.627Z,88.19
2022-10-01T16:34:28.795Z,88.07
2022-10-01T16:36:59.557Z,88.24
2022-10-01T16:39:30.378Z,88.24
2022-10-01T16:42:22.721Z,88.23
2022-10-01T16:44:53.691Z,88.53
2022-10-01T16:47:24.409Z,88.46
2022-10-01T16:49:53.788Z,88.51
2022-10-01T16:52:24.658Z,88.78
2022-10-01T16:54:55.688Z,88.96
2022-10-01T16:57:26.483Z,89.05
2022-10-01T16:59:57.512Z,89.09
2022-10-01T17:02:28.428Z,88.98
2022-10-01T17:05:00.950Z,89.04
2022-10-01T17:07:31.744Z,89.49
2022-10-01T17:10:01.656Z,89.20
2022-10-01T17:12:32.803Z,89.25
2022-10-01T17:15:03.974Z,89.45
2022-10-01T17:17:35.505Z,89.55
2022-10-01T17:20:07.386Z,89.56
2022-10-01T17:22:39.034Z,89.82
2022-10-01T17:25:15.175Z,89.70
2022-10-01T17:27:46.154Z,89.86
2022-10-01T17:30:16.013Z,89.69
2022-10-01T17:32:46.998Z,89.91
2022-10-01T17:35:17.109Z,89.82
2022-10-01T17:37:48.251Z,89.69
2022-10-01T17:40:19.450Z,89.75
2022-10-01T17:42:50.247Z,89.74
2022-10-01T17:45:19.790Z,89.65
2022-10-01T17:47:51.612Z,89.58
2022-10-01T17:50:22.573Z,89.66
2022-10-01T17:52:53.707Z,89.60
2022-10-01T17:55:25.138Z,89.55
2022-10-01T17:57:56.403Z,89.64
2022-10-01T18:00:27.204Z,89.61
2022-10-01T18:03:01.032Z,89.51
2022-10-01T18:05:32.287Z,89.61
2022-10-01T18:08:03.895Z,89.69
2022-10-01T18:10:34.830Z,89.63
2022-10-01T18:13:06.012Z,89.72
2022-10-01T18:15:37.088Z,89.73
2022-10-01T18:19:31.081Z,90.00
2022-10-01T18:21:01.617Z,89.85
2022-10-01T18:23:32.799Z,89.86
2022-10-01T18:26:04.049Z,89.87
2022-10-01T18:28:35.240Z,89.79
2022-10-01T18:31:23.950Z,89.72
2022-10-01T18:33:57.888Z,89.79
2022-10-01T18:36:42.489Z,90.02
2022-10-01T18:39:20.004Z,89.92
2022-10-01T18:41:51.589Z,90.14
2022-10-01T18:44:24.222Z,90.03
2022-10-01T18:47:05.320Z,90.07
2022-10-01T18:50:01.567Z,89.91
2022-10-01T18:52:46.890Z,90.02
2022-10-01T18:55:36.069Z,89.95
2022-10-01T18:58:22.886Z,89.96
2022-10-01T19:01:04.847Z,89.89
2022-10-01T19:03:54.205Z,89.87
2022-10-01T19:06:41.952Z,89.90
2022-10-01T19:09:26.717Z,89.79
2022-10-01T19:12:05.868Z,89.73
2022-10-01T19:14:50.109Z,89.84
2022-10-01T19:17:36.136Z,89.88
2022-10-01T19:20:17.122Z,89.81
2022-10-01T19:23:10.641Z,89.73
2022-10-01T19:25:49.612Z,89.66
2022-10-01T19:28:35.195Z,89.84
2022-10-01T19:31:17.118Z,89.73
2022-10-01T19:33:51.722Z,89.87
2022-10-01T19:36:30.403Z,89.91
2022-10-01T19:39:10.153Z,90.00
2022-10-01T19:41:45.793Z,89.85
2022-10-01T19:44:21.863Z,89.96
2022-10-01T19:46:54.421Z,89.84
2022-10-01T19:49:31.968Z,89.98
2022-10-01T19:52:05.151Z,89.92
2022-10-01T19:54:40.091Z,89.87
2022-10-01T19:57:19.408Z,89.84
2022-10-01T19:59:50.482Z,89.71
2022-10-01T20:02:33.394Z,89.75
2022-10-01T20:05:07.351Z,89.75
2022-10-01T20:07:48.383Z,89.63
2022-10-01T20:10:29.564Z,89.62
2022-10-01T20:13:25.893Z,89.74
2022-10-01T20:16:07.850Z,89.72
2022-10-01T20:18:44.981Z,89.68
2022-10-01T20:21:35.779Z,89.69
2022-10-01T20:24:18.983Z,89.73
2022-10-01T20:26:56.306Z,89.78
2022-10-01T20:29:43.440Z,89.67
2022-10-01T20:32:20.857Z,89.79
2022-10-01T20:35:02.814Z,89.66
2022-10-01T20:37:52.393Z,89.74
2022-10-01T20:40:26.297Z,89.71
2022-10-01T20:43:03.034Z,89.69
2022-10-01T20:45:35.913Z,89.67
2022-10-01T20:48:14.585Z,89.63
2022-10-01T20:50:48.814Z,89.73
2022-10-01T20:53:26.791Z,89.49
2022-10-01T20:56:05.170Z,89.50
2022-10-01T20:58:44.670Z,89.54
2022-10-01T21:01:21.576Z,89.49
2022-10-01T21:03:58.103Z,89.40
2022-10-01T21:06:35.761Z,89.56
2022-10-01T21:09:21.703Z,89.66
2022-10-01T21:11:59.685Z,89.56
2022-10-01T21:14:35.663Z,89.58
2022-10-01T21:17:22.042Z,89.57
2022-10-01T21:20:23.900Z,89.58
2022-10-01T21:23:08.775Z,89.53
2022-10-01T21:25:53.524Z,89.56
2022-10-01T21:28:45.142Z,89.58
2022-10-01T21:31:30.929Z,89.57
2022-10-01T21:34:11.823Z,89.57
2022-10-01T21:36:59.966Z,89.54
2022-10-01T21:39:34.800Z,89.47
2022-10-01T21:42:15.609Z,89.45
2022-10-01T21:45:11.705Z,89.48
2022-10-01T21:47:59.383Z,89.51
2022-10-01T21:50:41.634Z,89.43
2022-10-01T21:53:29.361Z,89.42
2022-10-01T21:56:17.272Z,89.42
2022-10-01T21:59:01.559Z,89.42
2022-10-01T22:01:48.150Z,89.18
2022-10-01T22:04:25.389Z,89.11
2022-10-01T22:06:59.654Z,89.06
2022-10-01T22:09:40.469Z,89.06
2022-10-01T22:12:12.154Z,89.05
2022-10-01T22:14:45.555Z,89.11
2022-10-01T22:17:21.446Z,89.16
2022-10-01T22:19:57.784Z,88.99
2022-10-01T22:22:34.390Z,89.05
2022-10-01T22:25:07.137Z,89.02
2022-10-01T22:27:44.304Z,88.95
2022-10-01T22:30:14.902Z,89.04
2022-10-01T22:32:52.274Z,89.00
2022-10-01T22:35:27.499Z,89.00
2022-10-01T22:38:03.440Z,89.03
2022-10-01T22:40:40.444Z,89.01
2022-10-01T22:43:13.340Z,88.83
2022-10-01T22:46:06.337Z,88.95
2022-10-01T22:48:49.980Z,89.02
2022-10-01T22:51:35.832Z,88.88
2022-10-01T22:54:29.602Z,88.82
2022-10-01T22:57:14.155Z,88.77
2022-10-01T22:59:57.747Z,88.62
2022-10-01T23:02:34.373Z,88.53
2022-10-01T23:05:20.111Z,88.52
2022-10-01T23:08:00.858Z,88.42
2022-10-01T23:10:40.852Z,88.37
2022-10-01T23:13:20.909Z,88.44
2022-10-01T23:16:02.976Z,88.41
2022-10-01T23:18:47.247Z,88.42
2022-10-01T23:21:32.670Z,88.58
2022-10-01T23:24:20.370Z,88.50
2022-10-01T23:27:01.387Z,88.46
2022-10-01T23:29:54.572Z,88.58
2022-10-01T23:32:43.364Z,88.54
2022-10-01T23:35:20.362Z,88.61
2022-10-01T23:38:11.627Z,88.60
2022-10-01T23:40:46.295Z,88.39
2022-10-01T23:43:25.537Z,88.46
2022-10-01T23:46:01.315Z,88.44
2022-10-01T23:48:40.619Z,88.43
2022-10-01T23:51:17.851Z,88.31
2022-10-01T23:53:58.793Z,88.34
2022-10-01T23:56:51.844Z,88.21
2022-10-01T23:59:29.954Z,88.07
